sensor_id;sensor_type;location;lat;lon;timestamp;temperature;humidity
35127;DHT22;21300;52.006;5.798;2022-08-03T00:00:03;23.10;64.70
35127;DHT22;21300;52.006;5.798;2022-08-03T00:02:29;23.10;64.70
35127;DHT22;21300;52.006;5.798;2022-08-03T00:04:54;23.10;64.80
35127;DHT22;21300;52.006;5.798;2022-08-03T00:07:20;23.10;64.80
35127;DHT22;21300;52.006;5.798;2022-08-03T00:09:46;23.00;64.80
35127;DHT22;21300;52.006;5.798;2022-08-03T00:12:11;23.00;64.90
35127;DHT22;21300;52.006;5.798;2022-08-03T00:14:37;23.00;64.90
35127;DHT22;21300;52.006;5.798;2022-08-03T00:17:03;23.00;65.00
35127;DHT22;21300;52.006;5.798;2022-08-03T00:19:29;22.90;65.00
35127;DHT22;21300;52.006;5.798;2022-08-03T00:21:55;22.90;65.00
35127;DHT22;21300;52.006;5.798;2022-08-03T00:24:20;22.90;65.00
35127;DHT22;21300;52.006;5.798;2022-08-03T00:26:46;22.90;65.30
35127;DHT22;21300;52.006;5.798;2022-08-03T00:29:12;22.80;65.00
35127;DHT22;21300;52.006;5.798;2022-08-03T00:31:41;22.80;64.90
35127;DHT22;21300;52.006;5.798;2022-08-03T00:34:07;22.80;65.00
35127;DHT22;21300;52.006;5.798;2022-08-03T00:36:33;22.80;65.00
35127;DHT22;21300;52.006;5.798;2022-08-03T00:38:59;22.80;65.00
35127;DHT22;21300;52.006;5.798;2022-08-03T00:41:24;22.70;64.90
35127;DHT22;21300;52.006;5.798;2022-08-03T00:43:52;22.70;65.00
35127;DHT22;21300;52.006;5.798;2022-08-03T00:46:18;22.70;65.00
35127;DHT22;21300;52.006;5.798;2022-08-03T00:48:47;22.70;65.10
35127;DHT22;21300;52.006;5.798;2022-08-03T00:51:13;22.60;65.00
35127;DHT22;21300;52.006;5.798;2022-08-03T00:53:39;22.60;65.10
35127;DHT22;21300;52.006;5.798;2022-08-03T00:56:05;22.60;65.10
35127;DHT22;21300;52.006;5.798;2022-08-03T00:58:31;22.50;65.10
35127;DHT22;21300;52.006;5.798;2022-08-03T01:00:56;22.50;65.20
35127;DHT22;21300;52.006;5.798;2022-08-03T01:03:22;22.50;65.30
35127;DHT22;21300;52.006;5.798;2022-08-03T01:05:59;22.50;65.30
35127;DHT22;21300;52.006;5.798;2022-08-03T01:11:37;22.40;65.50
35127;DHT22;21300;52.006;5.798;2022-08-03T01:14:16;22.40;65.50
35127;DHT22;21300;52.006;5.798;2022-08-03T01:16:56;22.40;65.60
35127;DHT22;21300;52.006;5.798;2022-08-03T01:25:22;22.30;65.80
35127;DHT22;21300;52.006;5.798;2022-08-03T01:30:43;22.20;65.70
35127;DHT22;21300;52.006;5.798;2022-08-03T01:33:33;22.20;65.90
35127;DHT22;21300;52.006;5.798;2022-08-03T01:39:05;22.20;66.00
35127;DHT22;21300;52.006;5.798;2022-08-03T01:41:41;22.10;66.00
35127;DHT22;21300;52.006;5.798;2022-08-03T01:44:11;22.10;66.10
35127;DHT22;21300;52.006;5.798;2022-08-03T01:46:38;22.10;66.30
35127;DHT22;21300;52.006;5.798;2022-08-03T01:49:07;22.10;66.30
35127;DHT22;21300;52.006;5.798;2022-08-03T01:51:35;22.00;66.20
35127;DHT22;21300;52.006;5.798;2022-08-03T01:54:02;22.00;66.30
35127;DHT22;21300;52.006;5.798;2022-08-03T01:56:29;22.00;66.50
35127;DHT22;21300;52.006;5.798;2022-08-03T01:58:56;22.00;66.50
35127;DHT22;21300;52.006;5.798;2022-08-03T02:01:24;21.90;66.60
35127;DHT22;21300;52.006;5.798;2022-08-03T02:03:51;21.90;66.70
35127;DHT22;21300;52.006;5.798;2022-08-03T02:06:19;21.90;66.80
35127;DHT22;21300;52.006;5.798;2022-08-03T02:08:47;21.80;66.70
35127;DHT22;21300;52.006;5.798;2022-08-03T02:11:13;21.80;66.80
35127;DHT22;21300;52.006;5.798;2022-08-03T02:13:39;21.80;66.80
35127;DHT22;21300;52.006;5.798;2022-08-03T02:16:12;21.80;67.00
35127;DHT22;21300;52.006;5.798;2022-08-03T02:18:40;21.80;67.00
35127;DHT22;21300;52.006;5.798;2022-08-03T02:21:08;21.70;67.10
35127;DHT22;21300;52.006;5.798;2022-08-03T02:23:36;21.70;67.20
35127;DHT22;21300;52.006;5.798;2022-08-03T02:26:03;21.70;67.20
35127;DHT22;21300;52.006;5.798;2022-08-03T02:28:41;21.70;67.30
35127;DHT22;21300;52.006;5.798;2022-08-03T02:31:14;21.60;67.30
35127;DHT22;21300;52.006;5.798;2022-08-03T02:33:44;21.60;67.40
35127;DHT22;21300;52.006;5.798;2022-08-03T02:36:13;21.60;67.50
35127;DHT22;21300;52.006;5.798;2022-08-03T02:38:43;21.60;67.50
35127;DHT22;21300;52.006;5.798;2022-08-03T02:41:17;21.60;67.60
35127;DHT22;21300;52.006;5.798;2022-08-03T02:43:48;21.50;67.60
35127;DHT22;21300;52.006;5.798;2022-08-03T02:46:19;21.50;67.70
35127;DHT22;21300;52.006;5.798;2022-08-03T02:48:47;21.50;67.80
35127;DHT22;21300;52.006;5.798;2022-08-03T02:51:17;21.50;67.80
35127;DHT22;21300;52.006;5.798;2022-08-03T02:53:44;21.40;67.80
35127;DHT22;21300;52.006;5.798;2022-08-03T02:56:11;21.40;67.90
35127;DHT22;21300;52.006;5.798;2022-08-03T02:58:38;21.40;68.00
35127;DHT22;21300;52.006;5.798;2022-08-03T03:01:05;21.40;68.00
35127;DHT22;21300;52.006;5.798;2022-08-03T03:03:35;21.30;68.00
35127;DHT22;21300;52.006;5.798;2022-08-03T03:06:01;21.30;68.10
35127;DHT22;21300;52.006;5.798;2022-08-03T03:08:27;21.30;68.20
35127;DHT22;21300;52.006;5.798;2022-08-03T03:10:56;21.30;68.20
35127;DHT22;21300;52.006;5.798;2022-08-03T03:13:22;21.30;68.30
35127;DHT22;21300;52.006;5.798;2022-08-03T03:15:50;21.20;68.30
35127;DHT22;21300;52.006;5.798;2022-08-03T03:18:16;21.30;69.30
35127;DHT22;21300;52.006;5.798;2022-08-03T03:20:44;21.20;68.40
35127;DHT22;21300;52.006;5.798;2022-08-03T03:23:10;21.20;68.50
35127;DHT22;21300;52.006;5.798;2022-08-03T03:25:39;21.20;68.60
35127;DHT22;21300;52.006;5.798;2022-08-03T03:28:05;21.10;68.60
35127;DHT22;21300;52.006;5.798;2022-08-03T03:30:31;21.10;68.70
35127;DHT22;21300;52.006;5.798;2022-08-03T03:32:58;21.10;68.80
35127;DHT22;21300;52.006;5.798;2022-08-03T03:35:25;21.10;68.80
35127;DHT22;21300;52.006;5.798;2022-08-03T03:37:51;21.10;68.90
35127;DHT22;21300;52.006;5.798;2022-08-03T03:40:17;21.00;69.00
35127;DHT22;21300;52.006;5.798;2022-08-03T03:42:43;21.00;69.00
35127;DHT22;21300;52.006;5.798;2022-08-03T03:45:10;21.00;69.10
35127;DHT22;21300;52.006;5.798;2022-08-03T03:47:36;21.00;69.90
35127;DHT22;21300;52.006;5.798;2022-08-03T03:50:03;21.00;69.20
35127;DHT22;21300;52.006;5.798;2022-08-03T03:52:30;21.00;69.30
35127;DHT22;21300;52.006;5.798;2022-08-03T03:54:56;21.00;69.30
35127;DHT22;21300;52.006;5.798;2022-08-03T03:57:22;20.90;69.30
35127;DHT22;21300;52.006;5.798;2022-08-03T03:59:47;20.90;69.70
35127;DHT22;21300;52.006;5.798;2022-08-03T04:02:13;20.80;69.80
35127;DHT22;21300;52.006;5.798;2022-08-03T04:04:39;20.60;71.00
35127;DHT22;21300;52.006;5.798;2022-08-03T04:07:25;20.50;71.80
35127;DHT22;21300;52.006;5.798;2022-08-03T04:10:16;20.40;71.80
35127;DHT22;21300;52.006;5.798;2022-08-03T04:13:04;20.30;73.30
35127;DHT22;21300;52.006;5.798;2022-08-03T04:15:32;20.20;74.90
35127;DHT22;21300;52.006;5.798;2022-08-03T04:17:58;20.10;74.50
35127;DHT22;21300;52.006;5.798;2022-08-03T04:20:27;20.00;75.40
35127;DHT22;21300;52.006;5.798;2022-08-03T04:22:55;20.00;75.70
35127;DHT22;21300;52.006;5.798;2022-08-03T04:25:25;19.90;75.80
35127;DHT22;21300;52.006;5.798;2022-08-03T04:27:52;19.90;76.00
35127;DHT22;21300;52.006;5.798;2022-08-03T04:30:21;19.90;76.30
35127;DHT22;21300;52.006;5.798;2022-08-03T04:32:48;19.90;76.10
35127;DHT22;21300;52.006;5.798;2022-08-03T04:35:17;19.80;77.00
35127;DHT22;21300;52.006;5.798;2022-08-03T04:37:48;19.80;76.50
35127;DHT22;21300;52.006;5.798;2022-08-03T04:40:19;19.80;76.30
35127;DHT22;21300;52.006;5.798;2022-08-03T04:42:48;19.80;76.90
35127;DHT22;21300;52.006;5.798;2022-08-03T04:45:15;19.80;76.50
35127;DHT22;21300;52.006;5.798;2022-08-03T04:47:41;19.70;77.50
35127;DHT22;21300;52.006;5.798;2022-08-03T04:50:08;19.70;76.70
35127;DHT22;21300;52.006;5.798;2022-08-03T04:52:34;19.70;76.10
35127;DHT22;21300;52.006;5.798;2022-08-03T04:55:00;19.80;77.00
35127;DHT22;21300;52.006;5.798;2022-08-03T04:57:26;19.70;76.50
35127;DHT22;21300;52.006;5.798;2022-08-03T04:59:52;19.70;77.00
35127;DHT22;21300;52.006;5.798;2022-08-03T05:05:04;19.70;77.30
35127;DHT22;21300;52.006;5.798;2022-08-03T05:07:29;19.70;76.80
35127;DHT22;21300;52.006;5.798;2022-08-03T05:09:55;19.70;76.80
35127;DHT22;21300;52.006;5.798;2022-08-03T05:12:20;19.70;76.50
35127;DHT22;21300;52.006;5.798;2022-08-03T05:14:46;19.80;76.80
35127;DHT22;21300;52.006;5.798;2022-08-03T05:17:12;19.80;76.70
35127;DHT22;21300;52.006;5.798;2022-08-03T05:19:37;19.80;76.50
35127;DHT22;21300;52.006;5.798;2022-08-03T05:22:03;19.80;77.50
35127;DHT22;21300;52.006;5.798;2022-08-03T05:24:29;19.80;78.30
35127;DHT22;21300;52.006;5.798;2022-08-03T05:26:54;19.80;78.00
35127;DHT22;21300;52.006;5.798;2022-08-03T05:29:20;19.80;77.00
35127;DHT22;21300;52.006;5.798;2022-08-03T05:31:45;19.80;77.30
35127;DHT22;21300;52.006;5.798;2022-08-03T05:34:11;19.80;77.20
35127;DHT22;21300;52.006;5.798;2022-08-03T05:36:37;19.80;78.50
35127;DHT22;21300;52.006;5.798;2022-08-03T05:39:02;19.80;77.70
35127;DHT22;21300;52.006;5.798;2022-08-03T05:41:28;19.80;78.30
35127;DHT22;21300;52.006;5.798;2022-08-03T05:43:54;19.90;78.90
35127;DHT22;21300;52.006;5.798;2022-08-03T05:46:20;19.90;78.90
35127;DHT22;21300;52.006;5.798;2022-08-03T05:48:46;19.90;80.10
35127;DHT22;21300;52.006;5.798;2022-08-03T05:51:12;19.90;78.90
35127;DHT22;21300;52.006;5.798;2022-08-03T05:53:41;19.90;78.90
35127;DHT22;21300;52.006;5.798;2022-08-03T05:56:08;19.90;80.10
35127;DHT22;21300;52.006;5.798;2022-08-03T05:58:34;19.90;78.80
35127;DHT22;21300;52.006;5.798;2022-08-03T06:00:59;20.00;80.50
35127;DHT22;21300;52.006;5.798;2022-08-03T06:03:25;20.00;79.40
35127;DHT22;21300;52.006;5.798;2022-08-03T06:05:52;20.10;79.50
35127;DHT22;21300;52.006;5.798;2022-08-03T06:08:18;20.10;79.20
35127;DHT22;21300;52.006;5.798;2022-08-03T06:10:44;20.10;79.30
35127;DHT22;21300;52.006;5.798;2022-08-03T06:13:10;20.10;79.80
35127;DHT22;21300;52.006;5.798;2022-08-03T06:15:35;20.20;80.00
35127;DHT22;21300;52.006;5.798;2022-08-03T06:18:01;20.20;79.70
35127;DHT22;21300;52.006;5.798;2022-08-03T06:20:27;20.20;79.70
35127;DHT22;21300;52.006;5.798;2022-08-03T06:22:52;20.10;79.70
35127;DHT22;21300;52.006;5.798;2022-08-03T06:25:18;20.20;79.70
35127;DHT22;21300;52.006;5.798;2022-08-03T06:27:44;20.20;79.50
35127;DHT22;21300;52.006;5.798;2022-08-03T06:30:11;20.20;80.20
35127;DHT22;21300;52.006;5.798;2022-08-03T06:32:38;20.20;79.30
35127;DHT22;21300;52.006;5.798;2022-08-03T06:35:05;20.20;79.10
35127;DHT22;21300;52.006;5.798;2022-08-03T06:37:31;20.30;79.00
35127;DHT22;21300;52.006;5.798;2022-08-03T06:40:06;20.30;78.80
35127;DHT22;21300;52.006;5.798;2022-08-03T06:42:31;20.30;78.70
35127;DHT22;21300;52.006;5.798;2022-08-03T06:44:57;20.30;78.50
35127;DHT22;21300;52.006;5.798;2022-08-03T06:47:22;20.40;78.50
35127;DHT22;21300;52.006;5.798;2022-08-03T06:49:48;20.40;78.40
35127;DHT22;21300;52.006;5.798;2022-08-03T06:52:14;20.40;78.20
35127;DHT22;21300;52.006;5.798;2022-08-03T06:54:39;20.40;78.00
35127;DHT22;21300;52.006;5.798;2022-08-03T06:57:05;20.40;77.90
35127;DHT22;21300;52.006;5.798;2022-08-03T06:59:30;20.50;77.80
35127;DHT22;21300;52.006;5.798;2022-08-03T07:07:25;20.60;77.50
35127;DHT22;21300;52.006;5.798;2022-08-03T07:09:51;20.60;77.40
35127;DHT22;21300;52.006;5.798;2022-08-03T07:12:16;20.60;77.30
35127;DHT22;21300;52.006;5.798;2022-08-03T07:14:42;20.60;77.30
35127;DHT22;21300;52.006;5.798;2022-08-03T07:17:07;20.60;77.30
35127;DHT22;21300;52.006;5.798;2022-08-03T07:19:33;20.60;77.20
35127;DHT22;21300;52.006;5.798;2022-08-03T07:21:58;20.70;77.10
35127;DHT22;21300;52.006;5.798;2022-08-03T07:24:24;20.70;77.10
35127;DHT22;21300;52.006;5.798;2022-08-03T07:26:50;20.80;77.10
35127;DHT22;21300;52.006;5.798;2022-08-03T07:29:15;20.80;77.00
35127;DHT22;21300;52.006;5.798;2022-08-03T07:31:41;20.80;76.90
35127;DHT22;21300;52.006;5.798;2022-08-03T07:34:07;20.80;76.90
35127;DHT22;21300;52.006;5.798;2022-08-03T07:36:32;20.80;76.80
35127;DHT22;21300;52.006;5.798;2022-08-03T07:38:58;20.90;76.80
35127;DHT22;21300;52.006;5.798;2022-08-03T07:41:23;20.90;76.70
35127;DHT22;21300;52.006;5.798;2022-08-03T07:43:49;21.00;76.70
35127;DHT22;21300;52.006;5.798;2022-08-03T07:46:17;21.00;76.70
35127;DHT22;21300;52.006;5.798;2022-08-03T07:48:43;21.00;76.60
35127;DHT22;21300;52.006;5.798;2022-08-03T07:51:08;21.00;76.50
35127;DHT22;21300;52.006;5.798;2022-08-03T07:53:34;21.00;76.50
35127;DHT22;21300;52.006;5.798;2022-08-03T07:56:18;21.10;76.40
35127;DHT22;21300;52.006;5.798;2022-08-03T07:58:44;21.10;76.40
35127;DHT22;21300;52.006;5.798;2022-08-03T08:01:09;21.10;76.30
35127;DHT22;21300;52.006;5.798;2022-08-03T08:03:35;21.20;76.30
35127;DHT22;21300;52.006;5.798;2022-08-03T08:06:01;21.20;76.20
35127;DHT22;21300;52.006;5.798;2022-08-03T08:08:26;21.20;76.20
35127;DHT22;21300;52.006;5.798;2022-08-03T08:10:52;21.30;76.20
35127;DHT22;21300;52.006;5.798;2022-08-03T08:13:17;21.30;76.20
35127;DHT22;21300;52.006;5.798;2022-08-03T08:15:43;21.40;76.20
35127;DHT22;21300;52.006;5.798;2022-08-03T08:18:08;21.40;76.20
35127;DHT22;21300;52.006;5.798;2022-08-03T08:20:35;21.40;76.10
35127;DHT22;21300;52.006;5.798;2022-08-03T08:23:06;21.40;76.10
35127;DHT22;21300;52.006;5.798;2022-08-03T08:25:32;21.50;76.10
35127;DHT22;21300;52.006;5.798;2022-08-03T08:27:58;21.50;76.10
35127;DHT22;21300;52.006;5.798;2022-08-03T08:30:29;21.50;76.00
35127;DHT22;21300;52.006;5.798;2022-08-03T08:32:55;21.50;75.90
35127;DHT22;21300;52.006;5.798;2022-08-03T08:35:22;21.60;76.00
35127;DHT22;21300;52.006;5.798;2022-08-03T08:37:47;21.60;75.90
35127;DHT22;21300;52.006;5.798;2022-08-03T08:40:13;21.60;75.90
35127;DHT22;21300;52.006;5.798;2022-08-03T08:42:43;21.70;75.80
35127;DHT22;21300;52.006;5.798;2022-08-03T08:45:09;21.70;75.80
35127;DHT22;21300;52.006;5.798;2022-08-03T08:47:40;21.70;75.80
35127;DHT22;21300;52.006;5.798;2022-08-03T08:50:09;21.80;75.80
35127;DHT22;21300;52.006;5.798;2022-08-03T08:52:37;21.80;75.90
35127;DHT22;21300;52.006;5.798;2022-08-03T08:55:06;21.90;75.80
35127;DHT22;21300;52.006;5.798;2022-08-03T09:00:21;21.90;75.90
35127;DHT22;21300;52.006;5.798;2022-08-03T09:02:46;21.90;75.80
35127;DHT22;21300;52.006;5.798;2022-08-03T09:05:14;22.00;75.80
35127;DHT22;21300;52.006;5.798;2022-08-03T09:07:41;22.00;75.80
35127;DHT22;21300;52.006;5.798;2022-08-03T09:10:08;22.10;75.90
35127;DHT22;21300;52.006;5.798;2022-08-03T09:12:45;22.10;75.90
35127;DHT22;21300;52.006;5.798;2022-08-03T09:17:44;22.20;75.90
35127;DHT22;21300;52.006;5.798;2022-08-03T09:20:11;22.20;76.00
35127;DHT22;21300;52.006;5.798;2022-08-03T09:22:57;22.30;76.10
35127;DHT22;21300;52.006;5.798;2022-08-03T09:25:37;22.30;76.10
35127;DHT22;21300;52.006;5.798;2022-08-03T09:28:14;22.40;76.10
35127;DHT22;21300;52.006;5.798;2022-08-03T09:30:42;22.40;76.20
35127;DHT22;21300;52.006;5.798;2022-08-03T09:33:13;22.40;76.20
35127;DHT22;21300;52.006;5.798;2022-08-03T09:35:45;22.50;76.30
35127;DHT22;21300;52.006;5.798;2022-08-03T09:38:22;22.50;76.30
35127;DHT22;21300;52.006;5.798;2022-08-03T09:40:48;22.50;76.40
35127;DHT22;21300;52.006;5.798;2022-08-03T09:43:15;22.60;76.50
35127;DHT22;21300;52.006;5.798;2022-08-03T09:45:41;22.70;76.50
35127;DHT22;21300;52.006;5.798;2022-08-03T09:48:26;22.70;76.60
35127;DHT22;21300;52.006;5.798;2022-08-03T09:50:53;22.80;76.60
35127;DHT22;21300;52.006;5.798;2022-08-03T09:53:20;22.80;76.60
35127;DHT22;21300;52.006;5.798;2022-08-03T09:58:22;22.90;76.70
35127;DHT22;21300;52.006;5.798;2022-08-03T10:03:18;23.00;76.70
35127;DHT22;21300;52.006;5.798;2022-08-03T10:05:44;23.00;77.40
35127;DHT22;21300;52.006;5.798;2022-08-03T10:08:17;23.10;76.60
35127;DHT22;21300;52.006;5.798;2022-08-03T10:10:48;23.10;76.60
35127;DHT22;21300;52.006;5.798;2022-08-03T10:13:16;23.20;76.70
35127;DHT22;21300;52.006;5.798;2022-08-03T10:15:43;23.20;76.70
35127;DHT22;21300;52.006;5.798;2022-08-03T10:18:08;23.30;77.50
35127;DHT22;21300;52.006;5.798;2022-08-03T10:20:44;23.30;76.70
35127;DHT22;21300;52.006;5.798;2022-08-03T10:23:10;23.30;76.60
35127;DHT22;21300;52.006;5.798;2022-08-03T10:25:38;23.40;76.70
35127;DHT22;21300;52.006;5.798;2022-08-03T10:28:05;23.40;76.50
35127;DHT22;21300;52.006;5.798;2022-08-03T10:30:32;23.50;76.50
35127;DHT22;21300;52.006;5.798;2022-08-03T10:33:04;23.60;76.60
35127;DHT22;21300;52.006;5.798;2022-08-03T10:35:31;23.60;76.50
35127;DHT22;21300;52.006;5.798;2022-08-03T10:37:59;23.70;76.60
35127;DHT22;21300;52.006;5.798;2022-08-03T10:40:28;23.70;76.70
35127;DHT22;21300;52.006;5.798;2022-08-03T10:42:58;23.70;76.60
35127;DHT22;21300;52.006;5.798;2022-08-03T10:45:27;23.80;76.60
35127;DHT22;21300;52.006;5.798;2022-08-03T10:47:54;23.80;76.50
35127;DHT22;21300;52.006;5.798;2022-08-03T10:50:23;23.90;76.60
35127;DHT22;21300;52.006;5.798;2022-08-03T10:53:06;23.90;76.60
35127;DHT22;21300;52.006;5.798;2022-08-03T10:55:42;24.00;76.50
35127;DHT22;21300;52.006;5.798;2022-08-03T11:01:10;24.10;76.50
35127;DHT22;21300;52.006;5.798;2022-08-03T11:06:35;24.20;76.40
35127;DHT22;21300;52.006;5.798;2022-08-03T11:09:21;24.20;76.20
35127;DHT22;21300;52.006;5.798;2022-08-03T11:11:47;24.30;76.20
35127;DHT22;21300;52.006;5.798;2022-08-03T11:16:45;24.40;76.00
35127;DHT22;21300;52.006;5.798;2022-08-03T11:19:14;24.40;76.30
35127;DHT22;21300;52.006;5.798;2022-08-03T11:35:07;24.70;75.60
35127;DHT22;21300;52.006;5.798;2022-08-03T11:37:32;24.80;75.80
35127;DHT22;21300;52.006;5.798;2022-08-03T11:39:58;24.80;75.70
35127;DHT22;21300;52.006;5.798;2022-08-03T11:44:52;24.90;75.50
35127;DHT22;21300;52.006;5.798;2022-08-03T11:47:19;24.90;75.60
35127;DHT22;21300;52.006;5.798;2022-08-03T11:49:47;25.00;75.60
35127;DHT22;21300;52.006;5.798;2022-08-03T11:52:13;25.00;74.80
35127;DHT22;21300;52.006;5.798;2022-08-03T11:54:58;25.00;74.30
35127;DHT22;21300;52.006;5.798;2022-08-03T11:57:29;25.10;74.60
35127;DHT22;21300;52.006;5.798;2022-08-03T11:59:54;25.20;74.80
35127;DHT22;21300;52.006;5.798;2022-08-03T12:02:20;25.20;74.70
35127;DHT22;21300;52.006;5.798;2022-08-03T12:04:54;25.20;74.70
35127;DHT22;21300;52.006;5.798;2022-08-03T12:07:24;25.20;74.50
35127;DHT22;21300;52.006;5.798;2022-08-03T12:10:12;25.30;74.50
35127;DHT22;21300;52.006;5.798;2022-08-03T12:12:57;25.30;74.10
35127;DHT22;21300;52.006;5.798;2022-08-03T12:15:24;25.40;73.50
35127;DHT22;21300;52.006;5.798;2022-08-03T12:17:49;25.40;72.80
35127;DHT22;21300;52.006;5.798;2022-08-03T12:20:21;25.50;73.10
35127;DHT22;21300;52.006;5.798;2022-08-03T12:22:47;25.50;73.10
35127;DHT22;21300;52.006;5.798;2022-08-03T12:25:24;25.60;72.90
35127;DHT22;21300;52.006;5.798;2022-08-03T12:27:51;25.60;73.40
35127;DHT22;21300;52.006;5.798;2022-08-03T12:30:37;25.60;73.30
35127;DHT22;21300;52.006;5.798;2022-08-03T12:36:06;25.70;73.50
35127;DHT22;21300;52.006;5.798;2022-08-03T12:38:37;25.70;73.40
35127;DHT22;21300;52.006;5.798;2022-08-03T12:41:09;25.80;73.40
35127;DHT22;21300;52.006;5.798;2022-08-03T12:43:50;25.80;73.20
35127;DHT22;21300;52.006;5.798;2022-08-03T12:46:18;25.80;73.00
35127;DHT22;21300;52.006;5.798;2022-08-03T12:49:07;25.90;73.30
35127;DHT22;21300;52.006;5.798;2022-08-03T12:51:54;25.90;73.10
35127;DHT22;21300;52.006;5.798;2022-08-03T12:54:23;26.00;72.90
35127;DHT22;21300;52.006;5.798;2022-08-03T12:59:33;26.00;72.60
35127;DHT22;21300;52.006;5.798;2022-08-03T13:01:59;26.00;72.10
35127;DHT22;21300;52.006;5.798;2022-08-03T13:04:26;26.10;72.00
35127;DHT22;21300;52.006;5.798;2022-08-03T13:07:03;26.10;71.70
35127;DHT22;21300;52.006;5.798;2022-08-03T13:09:43;26.10;71.70
35127;DHT22;21300;52.006;5.798;2022-08-03T13:12:20;26.20;71.90
35127;DHT22;21300;52.006;5.798;2022-08-03T13:14:48;26.20;71.70
35127;DHT22;21300;52.006;5.798;2022-08-03T13:17:15;26.20;72.40
35127;DHT22;21300;52.006;5.798;2022-08-03T13:19:44;26.30;71.30
35127;DHT22;21300;52.006;5.798;2022-08-03T13:22:15;26.30;71.10
35127;DHT22;21300;52.006;5.798;2022-08-03T13:24:42;26.40;71.00
35127;DHT22;21300;52.006;5.798;2022-08-03T13:27:08;26.30;70.80
35127;DHT22;21300;52.006;5.798;2022-08-03T13:29:34;26.40;70.70
35127;DHT22;21300;52.006;5.798;2022-08-03T13:32:01;26.40;70.80
35127;DHT22;21300;52.006;5.798;2022-08-03T13:34:27;26.40;70.50
35127;DHT22;21300;52.006;5.798;2022-08-03T13:36:53;26.40;70.40
35127;DHT22;21300;52.006;5.798;2022-08-03T13:39:18;26.50;70.50
35127;DHT22;21300;52.006;5.798;2022-08-03T13:41:44;26.50;70.30
35127;DHT22;21300;52.006;5.798;2022-08-03T13:44:10;26.50;70.40
35127;DHT22;21300;52.006;5.798;2022-08-03T13:46:36;26.50;70.20
35127;DHT22;21300;52.006;5.798;2022-08-03T13:49:02;26.50;70.20
35127;DHT22;21300;52.006;5.798;2022-08-03T13:51:28;26.60;70.30
35127;DHT22;21300;52.006;5.798;2022-08-03T13:53:54;26.60;70.60
35127;DHT22;21300;52.006;5.798;2022-08-03T13:56:19;26.70;70.70
35127;DHT22;21300;52.006;5.798;2022-08-03T13:58:45;26.70;70.80
35127;DHT22;21300;52.006;5.798;2022-08-03T14:01:11;26.70;70.80
35127;DHT22;21300;52.006;5.798;2022-08-03T14:03:36;26.70;70.60
35127;DHT22;21300;52.006;5.798;2022-08-03T14:06:02;26.70;70.50
35127;DHT22;21300;52.006;5.798;2022-08-03T14:08:28;26.70;70.30
35127;DHT22;21300;52.006;5.798;2022-08-03T14:10:53;26.80;70.40
35127;DHT22;21300;52.006;5.798;2022-08-03T14:13:38;26.70;70.40
35127;DHT22;21300;52.006;5.798;2022-08-03T14:16:04;26.80;70.40
35127;DHT22;21300;52.006;5.798;2022-08-03T14:18:30;26.80;70.40
35127;DHT22;21300;52.006;5.798;2022-08-03T14:20:56;26.80;70.30
35127;DHT22;21300;52.006;5.798;2022-08-03T14:23:22;26.80;70.40
35127;DHT22;21300;52.006;5.798;2022-08-03T14:25:48;26.90;70.40
35127;DHT22;21300;52.006;5.798;2022-08-03T14:28:14;26.90;70.30
35127;DHT22;21300;52.006;5.798;2022-08-03T14:30:39;26.90;70.20
35127;DHT22;21300;52.006;5.798;2022-08-03T14:33:05;26.90;70.10
35127;DHT22;21300;52.006;5.798;2022-08-03T14:35:30;27.00;70.10
35127;DHT22;21300;52.006;5.798;2022-08-03T14:37:56;27.00;70.10
35127;DHT22;21300;52.006;5.798;2022-08-03T14:40:22;27.00;70.00
35127;DHT22;21300;52.006;5.798;2022-08-03T14:42:47;27.00;69.90
35127;DHT22;21300;52.006;5.798;2022-08-03T14:45:13;27.00;69.80
35127;DHT22;21300;52.006;5.798;2022-08-03T14:47:39;27.00;69.80
35127;DHT22;21300;52.006;5.798;2022-08-03T14:50:05;27.00;69.70
35127;DHT22;21300;52.006;5.798;2022-08-03T14:52:31;27.00;69.60
35127;DHT22;21300;52.006;5.798;2022-08-03T14:54:58;27.10;69.70
35127;DHT22;21300;52.006;5.798;2022-08-03T14:57:24;27.10;69.60
35127;DHT22;21300;52.006;5.798;2022-08-03T14:59:50;27.10;69.50
35127;DHT22;21300;52.006;5.798;2022-08-03T15:02:16;27.10;69.50
35127;DHT22;21300;52.006;5.798;2022-08-03T15:04:41;27.10;69.40
35127;DHT22;21300;52.006;5.798;2022-08-03T15:07:07;27.20;69.40
35127;DHT22;21300;52.006;5.798;2022-08-03T15:09:33;27.20;69.30
35127;DHT22;21300;52.006;5.798;2022-08-03T15:11:58;27.20;69.30
35127;DHT22;21300;52.006;5.798;2022-08-03T15:14:24;27.20;69.10
35127;DHT22;21300;52.006;5.798;2022-08-03T15:16:50;27.20;69.10
35127;DHT22;21300;52.006;5.798;2022-08-03T15:19:16;27.20;68.90
35127;DHT22;21300;52.006;5.798;2022-08-03T15:21:41;27.20;68.80
35127;DHT22;21300;52.006;5.798;2022-08-03T15:24:07;27.20;68.80
35127;DHT22;21300;52.006;5.798;2022-08-03T15:26:33;27.20;68.60
35127;DHT22;21300;52.006;5.798;2022-08-03T15:28:58;27.20;68.40
35127;DHT22;21300;52.006;5.798;2022-08-03T15:31:24;27.30;68.40
35127;DHT22;21300;52.006;5.798;2022-08-03T15:33:50;27.30;68.40
35127;DHT22;21300;52.006;5.798;2022-08-03T15:36:19;27.30;68.40
35127;DHT22;21300;52.006;5.798;2022-08-03T15:38:45;27.30;68.30
35127;DHT22;21300;52.006;5.798;2022-08-03T15:41:12;27.30;68.30
35127;DHT22;21300;52.006;5.798;2022-08-03T15:43:38;27.30;68.20
35127;DHT22;21300;52.006;5.798;2022-08-03T15:46:04;27.30;68.00
35127;DHT22;21300;52.006;5.798;2022-08-03T15:48:29;27.30;67.80
35127;DHT22;21300;52.006;5.798;2022-08-03T15:50:55;27.30;67.70
35127;DHT22;21300;52.006;5.798;2022-08-03T15:53:21;27.30;67.60
35127;DHT22;21300;52.006;5.798;2022-08-03T15:55:46;27.40;67.50
35127;DHT22;21300;52.006;5.798;2022-08-03T15:58:12;27.40;67.60
35127;DHT22;21300;52.006;5.798;2022-08-03T16:00:39;27.40;67.30
35127;DHT22;21300;52.006;5.798;2022-08-03T16:03:04;27.40;67.30
35127;DHT22;21300;52.006;5.798;2022-08-03T16:05:30;27.40;67.30
35127;DHT22;21300;52.006;5.798;2022-08-03T16:07:56;27.40;67.10
35127;DHT22;21300;52.006;5.798;2022-08-03T16:10:22;27.40;67.10
35127;DHT22;21300;52.006;5.798;2022-08-03T16:12:47;27.40;67.10
35127;DHT22;21300;52.006;5.798;2022-08-03T16:15:13;27.40;67.10
35127;DHT22;21300;52.006;5.798;2022-08-03T16:17:39;27.40;67.10
35127;DHT22;21300;52.006;5.798;2022-08-03T16:20:07;27.40;67.00
35127;DHT22;21300;52.006;5.798;2022-08-03T16:22:33;27.40;67.00
35127;DHT22;21300;52.006;5.798;2022-08-03T16:25:05;27.40;66.80
35127;DHT22;21300;52.006;5.798;2022-08-03T16:27:30;27.40;66.50
35127;DHT22;21300;52.006;5.798;2022-08-03T16:29:56;27.40;66.50
35127;DHT22;21300;52.006;5.798;2022-08-03T16:32:22;27.50;66.50
35127;DHT22;21300;52.006;5.798;2022-08-03T16:34:47;27.50;66.50
35127;DHT22;21300;52.006;5.798;2022-08-03T16:37:13;27.50;66.50